createdAt,value
2019-01-25T00:00:38.882Z,53.4
2019-01-25T00:01:29.464Z,53.4
2019-01-25T00:02:18.987Z,53.4
2019-01-25T00:03:14.967Z,53.4
2019-01-25T00:03:59.929Z,53.4
2019-01-25T00:04:49.767Z,53.4
2019-01-25T00:05:39.476Z,53.4
2019-01-25T00:06:29.812Z,53.4
2019-01-25T00:07:19.591Z,53.4
2019-01-25T00:08:09.977Z,53.4
2019-01-25T00:08:59.989Z,53.4
2019-01-25T00:09:50.060Z,53.4
2019-01-25T00:10:39.834Z,53.3
2019-01-25T00:11:29.889Z,53.3
2019-01-25T00:12:19.950Z,53.3
2019-01-25T00:13:10.549Z,53.3
2019-01-25T00:13:59.790Z,53.3
2019-01-25T00:14:50.399Z,53.3
2019-01-25T00:15:39.673Z,53.3
2019-01-25T00:16:30.254Z,53.3
2019-01-25T00:17:21.106Z,53.3
2019-01-25T00:18:10.651Z,53.3
2019-01-25T00:19:00.740Z,53.3
2019-01-25T00:19:51.013Z,53.3
2019-01-25T00:20:40.804Z,53.3
2019-01-25T00:21:30.869Z,53.3
2019-01-25T00:22:21.251Z,53.3
2019-01-25T00:23:10.968Z,53.3
2019-01-25T00:24:02.214Z,53.3
2019-01-25T00:24:51.108Z,53.3
2019-01-25T00:25:40.873Z,53.3
2019-01-25T00:26:31.200Z,53.3
2019-01-25T00:27:20.763Z,53.3
2019-01-25T00:28:10.775Z,53.3
2019-01-25T00:29:01.684Z,53.3
2019-01-25T00:29:51.158Z,53.3
2019-01-25T00:30:41.836Z,53.2
2019-01-25T00:31:32.841Z,53.2
2019-01-25T00:32:21.877Z,53.2
2019-01-25T00:33:11.680Z,53.2
2019-01-25T00:34:01.445Z,53.2
2019-01-25T00:34:52.048Z,53.2
2019-01-25T00:35:41.849Z,53.2
2019-01-25T00:36:31.649Z,53.2
2019-01-25T00:37:22.250Z,53.2
2019-01-25T00:38:12.035Z,53.2
2019-01-25T00:39:01.539Z,53.1
2019-01-25T00:39:51.587Z,53.1
2019-01-25T00:40:43.502Z,53.2
2019-01-25T00:41:32.239Z,53.2
2019-01-25T00:42:21.750Z,53.1
2019-01-25T00:43:12.412Z,53.1
2019-01-25T00:44:01.846Z,53.1
2019-01-25T00:44:52.481Z,53.1
2019-01-25T00:45:42.814Z,53.1
2019-01-25T00:46:32.302Z,53.1
2019-01-25T00:47:22.674Z,53.1
2019-01-25T00:48:12.155Z,53.1
2019-01-25T00:49:02.204Z,53.1
2019-01-25T00:49:53.095Z,53.1
2019-01-25T00:50:42.596Z,53.1
2019-01-25T00:51:32.666Z,53.1
2019-01-25T00:52:22.713Z,53.1
2019-01-25T00:53:13.056Z,53.1
2019-01-25T00:54:02.848Z,53.1
2019-01-25T00:54:52.062Z,53.1
2019-01-25T00:55:43.543Z,53.1
2019-01-25T00:56:33.017Z,53.1
2019-01-25T00:57:23.337Z,53
2019-01-25T00:58:13.691Z,53.1
2019-01-25T00:59:03.218Z,53.1
2019-01-25T00:59:53.781Z,53.1
2019-01-25T01:00:43.306Z,53
2019-01-25T01:01:33.109Z,53
2019-01-25T01:02:23.973Z,53
2019-01-25T01:03:13.745Z,53
2019-01-25T01:04:03.253Z,53
2019-01-25T01:04:53.885Z,53
2019-01-25T01:05:43.368Z,53
2019-01-25T01:06:33.708Z,53
2019-01-25T01:07:24.028Z,53
2019-01-25T01:08:13.818Z,53
2019-01-25T01:09:04.422Z,52.9
2019-01-25T01:09:54.482Z,52.9
2019-01-25T01:10:44.648Z,52.9
2019-01-25T01:11:34.063Z,52.9
2019-01-25T01:12:24.382Z,52.9
2019-01-25T01:13:14.172Z,52.9
2019-01-25T01:14:04.495Z,52.9
2019-01-25T01:14:54.835Z,52.9
2019-01-25T01:15:44.335Z,52.9
2019-01-25T01:16:34.662Z,52.9
2019-01-25T01:17:24.998Z,52.9
2019-01-25T01:18:14.269Z,52.9
2019-01-25T01:19:04.822Z,52.9
2019-01-25T01:19:54.900Z,52.9
2019-01-25T01:20:44.944Z,52.9
2019-01-25T01:21:35.002Z,52.9
2019-01-25T01:22:25.062Z,52.9
2019-01-25T01:23:14.844Z,52.9
2019-01-25T01:24:05.181Z,52.9
2019-01-25T01:24:55.231Z,52.9
2019-01-25T01:25:45.577Z,52.9
2019-01-25T01:26:35.074Z,52.9
2019-01-25T01:27:25.404Z,52.9
2019-01-25T01:28:15.742Z,52.8
2019-01-25T01:29:05.256Z,52.8
2019-01-25T01:29:55.601Z,52.8
2019-01-25T01:30:45.934Z,52.8
2019-01-25T01:31:35.431Z,52.8
2019-01-25T01:32:25.476Z,52.8
2019-01-25T01:33:16.091Z,52.8
2019-01-25T01:34:05.661Z,52.8
2019-01-25T01:34:55.921Z,52.8
2019-01-25T01:35:45.706Z,52.8
2019-01-25T01:36:36.038Z,52.8
2019-01-25T01:37:25.846Z,52.8
2019-01-25T01:38:16.452Z,52.8
2019-01-25T01:39:05.663Z,52.8
2019-01-25T01:39:56.288Z,52.8
2019-01-25T01:40:46.361Z,52.8
2019-01-25T01:41:36.702Z,52.8
2019-01-25T01:42:26.522Z,52.8
2019-01-25T01:43:15.958Z,52.8
2019-01-25T01:44:06.578Z,52.8
2019-01-25T01:44:56.363Z,52.7
2019-01-25T01:45:46.118Z,52.8
2019-01-25T01:46:36.772Z,52.7
2019-01-25T01:47:26.520Z,52.7
2019-01-25T01:48:16.582Z,52.7
2019-01-25T01:49:06.395Z,52.7
2019-01-25T01:49:56.980Z,52.7
2019-01-25T01:50:46.493Z,52.7
2019-01-25T01:51:37.115Z,52.7
2019-01-25T01:52:26.858Z,52.7
2019-01-25T01:53:16.935Z,52.7
2019-01-25T01:54:07.258Z,52.7
2019-01-25T01:54:57.312Z,52.7
2019-01-25T01:55:47.662Z,52.7
2019-01-25T01:56:36.660Z,52.6
2019-01-25T01:57:27.485Z,52.6
2019-01-25T01:58:17.819Z,52.6
2019-01-25T01:59:07.902Z,52.6
2019-01-25T01:59:57.164Z,52.6
2019-01-25T02:00:47.989Z,52.6
2019-01-25T02:01:37.843Z,52.6
2019-01-25T02:02:27.567Z,52.6
2019-01-25T02:03:17.613Z,52.6
2019-01-25T02:04:07.700Z,52.8
2019-01-25T02:04:58.286Z,52.9
2019-01-25T02:05:47.889Z,53
2019-01-25T02:06:37.860Z,53.1
2019-01-25T02:07:27.904Z,53.3
2019-01-25T02:08:18.514Z,53.5
2019-01-25T02:09:08.307Z,53.6
2019-01-25T02:09:58.144Z,53.7
2019-01-25T02:10:48.684Z,53.9
2019-01-25T02:11:38.209Z,54
2019-01-25T02:12:28.798Z,54.1
2019-01-25T02:13:18.591Z,54.3
2019-01-25T02:14:08.593Z,54.4
2019-01-25T02:14:58.459Z,54.6
2019-01-25T02:15:48.194Z,54.7
2019-01-25T02:16:38.543Z,54.9
2019-01-25T02:17:28.858Z,55.1
2019-01-25T02:18:19.213Z,55.3
2019-01-25T02:19:08.996Z,55.4
2019-01-25T02:19:59.344Z,55.6
2019-01-25T02:20:49.106Z,55.8
2019-01-25T02:21:38.885Z,55.9
2019-01-25T02:22:29.320Z,56.1
2019-01-25T02:23:19.281Z,56.3
2019-01-25T02:24:09.386Z,56.4
2019-01-25T02:24:59.660Z,56.6
2019-01-25T02:25:48.900Z,56.7
2019-01-25T02:26:39.223Z,56.9
2019-01-25T02:27:29.593Z,57.1
2019-01-25T02:28:19.343Z,57.2
2019-01-25T02:29:09.675Z,57.3
2019-01-25T02:29:59.732Z,57.5
2019-01-25T02:30:49.578Z,57.7
2019-01-25T02:31:39.599Z,57.9
2019-01-25T02:32:29.682Z,58
2019-01-25T02:33:20.289Z,58.3
2019-01-25T02:34:10.343Z,58.4
2019-01-25T02:35:50.166Z,58.8
2019-01-25T02:36:39.662Z,58.9
2019-01-25T02:37:30.664Z,59
2019-01-25T02:38:19.787Z,59.3
2019-01-25T02:39:09.894Z,59.4
2019-01-25T02:40:00.457Z,59.6
2019-01-25T02:40:50.250Z,59.8
2019-01-25T02:41:40.596Z,60
2019-01-25T02:42:30.621Z,60.1
2019-01-25T02:43:20.407Z,60.4
2019-01-25T02:44:10.467Z,60.4
2019-01-25T02:45:00.531Z,60.6
2019-01-25T02:45:50.851Z,60.8
2019-01-25T02:46:40.632Z,60.9
2019-01-25T02:47:30.421Z,61.1
2019-01-25T02:48:20.824Z,61.2
2019-01-25T02:49:10.797Z,61.4
2019-01-25T02:50:01.294Z,61.5
2019-01-25T02:50:50.629Z,61.7
2019-01-25T02:51:41.529Z,61.9
2019-01-25T02:52:31.593Z,62.1
2019-01-25T02:53:21.097Z,62.3
2019-01-25T02:54:11.434Z,62.4
2019-01-25T02:55:01.263Z,62.4
2019-01-25T02:55:51.562Z,62.6
2019-01-25T02:56:41.339Z,62.6
2019-01-25T02:57:31.973Z,62.6
2019-01-25T02:58:21.157Z,62.6
2019-01-25T02:59:12.066Z,62.6
2019-01-25T03:00:01.522Z,62.6
2019-01-25T03:00:51.950Z,62.6
2019-01-25T03:01:41.931Z,62.6
2019-01-25T03:02:32.360Z,62.6
2019-01-25T03:03:22.371Z,62.6
2019-01-25T03:04:12.386Z,62.6
2019-01-25T03:05:02.181Z,62.6
2019-01-25T03:08:35.195Z,62.6
2019-01-25T03:09:24.561Z,62.6
2019-01-25T03:10:14.925Z,62.6
2019-01-25T03:11:05.219Z,62.7
2019-01-25T03:11:55.020Z,62.8
2019-01-25T03:12:45.395Z,62.8
2019-01-25T03:13:35.195Z,62.8
2019-01-25T03:14:25.230Z,62.8
2019-01-25T03:15:15.523Z,62.8
2019-01-25T03:16:05.545Z,62.8
2019-01-25T03:16:55.048Z,62.8
2019-01-25T03:17:45.762Z,62.8
2019-01-25T03:18:35.214Z,62.9
2019-01-25T03:19:25.542Z,62.9
2019-01-25T03:20:15.841Z,63
2019-01-25T03:21:07.505Z,63
2019-01-25T03:21:55.726Z,63
2019-01-25T03:22:45.767Z,63.1
2019-01-25T03:23:35.843Z,63
2019-01-25T03:24:26.187Z,63
2019-01-25T03:25:15.926Z,63
2019-01-25T03:26:06.292Z,63
2019-01-25T03:26:56.033Z,63
2019-01-25T03:27:46.099Z,63
2019-01-25T03:28:36.423Z,63
2019-01-25T03:29:26.519Z,63
2019-01-25T03:30:16.673Z,63
2019-01-25T03:31:06.391Z,63
2019-01-25T03:31:56.533Z,63
2019-01-25T03:32:46.578Z,63
2019-01-25T03:33:36.526Z,63
2019-01-25T03:34:26.887Z,63
2019-01-25T03:35:16.933Z,63
2019-01-25T03:36:06.677Z,62.9
2019-01-25T03:36:56.427Z,63
2019-01-25T03:37:46.782Z,63
2019-01-25T03:38:36.885Z,62.9
2019-01-25T03:39:26.683Z,62.9
2019-01-25T03:40:17.216Z,62.9
2019-01-25T03:41:07.295Z,62.9
2019-01-25T03:41:56.773Z,62.9
2019-01-25T03:42:47.451Z,62.9
2019-01-25T03:43:37.191Z,62.9
2019-01-25T03:44:27.503Z,62.9
2019-01-25T03:45:17.581Z,62.9
2019-01-25T03:46:07.373Z,62.9
2019-01-25T03:46:57.683Z,62.9
2019-01-25T03:47:47.588Z,62.9
2019-01-25T03:48:37.550Z,62.9
2019-01-25T03:49:27.888Z,62.9
2019-01-25T03:50:17.960Z,62.9
2019-01-25T03:51:07.717Z,62.9
2019-01-25T03:51:58.055Z,62.9
2019-01-25T03:52:47.822Z,62.9
2019-01-25T03:53:38.167Z,62.9
2019-01-25T03:54:28.203Z,62.9
2019-01-25T03:55:17.737Z,62.9
2019-01-25T03:56:08.342Z,62.9
2019-01-25T03:56:58.404Z,62.9
2019-01-25T03:57:48.434Z,62.9
2019-01-25T03:58:38.205Z,62.9
2019-01-25T03:59:28.564Z,62.9
2019-01-25T04:00:18.064Z,62.8
2019-01-25T04:01:08.364Z,62.8
2019-01-25T04:01:58.462Z,62.8
2019-01-25T04:02:48.204Z,62.8
2019-01-25T04:03:38.824Z,62.8
2019-01-25T04:04:28.024Z,62.8
2019-01-25T04:05:18.952Z,62.8
2019-01-25T04:06:09.019Z,62.8
2019-01-25T04:06:58.475Z,62.8
2019-01-25T04:07:49.236Z,62.8
2019-01-25T04:08:38.901Z,62.8
2019-01-25T04:09:28.957Z,62.8
2019-01-25T04:10:18.746Z,62.8
2019-01-25T04:11:09.349Z,62.8
2019-01-25T04:11:59.156Z,62.8
2019-01-25T04:12:49.181Z,62.8
2019-01-25T04:13:38.979Z,62.8
2019-01-25T04:14:29.621Z,62.8
2019-01-25T04:15:19.341Z,62.8
2019-01-25T04:16:09.779Z,62.7
2019-01-25T04:16:59.453Z,62.7
2019-01-25T04:17:49.295Z,62.7
2019-01-25T04:18:39.914Z,62.7
2019-01-25T04:19:29.637Z,62.7
2019-01-25T04:20:20.025Z,62.7
2019-01-25T04:21:09.851Z,62.7
2019-01-25T04:21:59.826Z,62.7
2019-01-25T04:22:49.906Z,62.7
2019-01-25T04:23:40.188Z,62.7
2019-01-25T04:24:29.963Z,62.7
2019-01-25T04:25:20.386Z,62.6
2019-01-25T04:26:10.435Z,62.6
2019-01-25T04:27:00.149Z,62.6
2019-01-25T04:27:49.375Z,62.6
2019-01-25T04:28:40.262Z,62.6
2019-01-25T04:29:30.668Z,62.6
2019-01-25T04:30:20.520Z,62.6
2019-01-25T04:31:10.537Z,62.6
2019-01-25T04:32:00.473Z,62.6
2019-01-25T04:32:50.626Z,62.6
2019-01-25T04:33:40.888Z,62.6
2019-01-25T04:34:30.932Z,62.6
2019-01-25T04:35:21.055Z,62.6
2019-01-25T04:36:10.831Z,62.6
2019-01-25T04:37:00.882Z,62.6
2019-01-25T04:37:51.239Z,62.6
2019-01-25T04:38:41.277Z,62.6
2019-01-25T04:39:30.704Z,62.6
2019-01-25T04:40:21.119Z,62.6
2019-01-25T04:41:16.607Z,62.5
2019-01-25T04:42:01.437Z,62.5
2019-01-25T04:42:51.272Z,62.5
2019-01-25T04:43:41.554Z,62.5
2019-01-25T04:44:30.812Z,62.5
2019-01-25T04:45:21.413Z,62.5
2019-01-25T04:46:11.491Z,62.5
2019-01-25T04:47:01.290Z,62.5
2019-01-25T04:47:51.869Z,62.4
2019-01-25T04:48:41.694Z,62.5
2019-01-25T04:49:31.151Z,62.4
2019-01-25T04:50:23.600Z,62.4
2019-01-25T04:51:11.872Z,62.4
2019-01-25T04:52:01.030Z,62.4
2019-01-25T04:52:51.971Z,62.4
2019-01-25T04:53:42.002Z,62.4
2019-01-25T04:54:32.306Z,62.4
2019-01-25T04:55:21.621Z,62.4
2019-01-25T04:56:12.191Z,62.4
2019-01-25T04:57:02.537Z,62.4
2019-01-25T04:57:52.555Z,62.4
2019-01-25T04:58:42.588Z,62.4
2019-01-25T04:59:32.437Z,62.4
2019-01-25T05:00:22.764Z,62.4
2019-01-25T05:01:12.802Z,62.4
2019-01-25T05:02:02.836Z,62.4
2019-01-25T05:02:52.052Z,62.4
2019-01-25T05:03:43.004Z,62.3
2019-01-25T05:04:32.450Z,62.3
2019-01-25T05:05:23.090Z,62.3
2019-01-25T05:06:13.188Z,62.3
2019-01-25T05:07:03.199Z,62.3
2019-01-25T05:07:52.712Z,62.3
2019-01-25T05:08:43.018Z,62.3
2019-01-25T05:09:33.117Z,62.3
2019-01-25T05:10:23.400Z,62.3
2019-01-25T05:11:21.953Z,62.3
2019-01-25T05:12:03.525Z,62.3
2019-01-25T05:12:57.580Z,62.3
2019-01-25T05:13:43.675Z,62.3
2019-01-25T05:14:33.433Z,62.3
2019-01-25T05:15:23.781Z,62.3
2019-01-25T05:16:13.799Z,62.3
2019-01-25T05:17:03.852Z,62.3
2019-01-25T05:17:53.929Z,62.3
2019-01-25T05:18:43.765Z,62.2
2019-01-25T05:19:33.745Z,62.2
2019-01-25T05:20:24.103Z,62.2
2019-01-25T05:21:14.242Z,62.2
2019-01-25T05:22:03.647Z,62.2
2019-01-25T05:22:53.727Z,62.2
2019-01-25T05:23:44.067Z,62.2
2019-01-25T05:24:34.145Z,62.2
2019-01-25T05:25:23.891Z,62.2
2019-01-25T05:26:14.490Z,62.2
2019-01-25T05:27:04.551Z,62.1
2019-01-25T05:27:54.302Z,62.1
2019-01-25T05:28:44.386Z,62.1
2019-01-25T05:29:34.168Z,62.1
2019-01-25T05:30:24.794Z,62.1
2019-01-25T05:31:14.294Z,62.1
2019-01-25T05:32:04.914Z,62.1
2019-01-25T05:32:54.654Z,62.1
2019-01-25T05:33:45.037Z,62.1
2019-01-25T05:34:35.046Z,62.1
2019-01-25T05:35:24.853Z,62.1
2019-01-25T05:36:14.873Z,62.1
2019-01-25T05:37:04.701Z,62.1
2019-01-25T05:37:55.299Z,62.1
2019-01-25T05:38:45.056Z,62.1
2019-01-25T05:39:35.111Z,62.1
2019-01-25T05:40:25.166Z,62.1
2019-01-25T05:41:15.500Z,62.1
2019-01-25T05:42:05.571Z,62
2019-01-25T05:42:55.616Z,62
2019-01-25T05:43:45.408Z,62
2019-01-25T05:44:35.455Z,62
2019-01-25T05:45:25.908Z,62
2019-01-25T05:46:15.580Z,62
2019-01-25T05:47:05.891Z,62
2019-01-25T05:47:55.725Z,62
2019-01-25T05:48:46.027Z,62
2019-01-25T05:49:36.082Z,61.9
2019-01-25T05:50:26.170Z,61.9
2019-01-25T05:51:16.195Z,61.9
2019-01-25T05:52:05.952Z,61.9
2019-01-25T05:52:56.317Z,61.9
2019-01-25T05:53:46.049Z,61.9
2019-01-25T05:54:35.578Z,61.9
2019-01-25T05:55:26.469Z,61.9
2019-01-25T05:56:15.977Z,61.9
2019-01-25T05:57:06.307Z,61.9
2019-01-25T05:57:56.632Z,61.9
2019-01-25T05:58:46.414Z,61.9
2019-01-25T05:59:36.197Z,61.9
2019-01-25T06:00:26.789Z,61.9
2019-01-25T06:01:16.856Z,61.9
2019-01-25T06:02:06.980Z,61.9
2019-01-25T06:02:56.696Z,61.9
2019-01-25T06:03:46.474Z,61.9
2019-01-25T06:04:37.091Z,61.8
2019-01-25T06:06:34.419Z,61.8
2019-01-25T06:07:24.629Z,61.8
2019-01-25T06:08:14.156Z,61.8
2019-01-25T06:09:04.522Z,61.8
2019-01-25T06:09:54.878Z,61.8
2019-01-25T06:10:44.865Z,61.8
2019-01-25T06:11:40.076Z,61.8
2019-01-25T06:12:24.695Z,61.8
2019-01-25T06:13:15.039Z,61.8
2019-01-25T06:14:05.086Z,61.8
2019-01-25T06:14:55.174Z,61.8
2019-01-25T06:15:45.214Z,61.8
2019-01-25T06:16:35.571Z,61.8
2019-01-25T06:17:25.043Z,61.8
2019-01-25T06:18:15.702Z,61.8
2019-01-25T06:19:05.457Z,61.8
2019-01-25T06:19:54.956Z,61.8
2019-01-25T06:20:45.849Z,61.7
2019-01-25T06:21:35.035Z,61.7
2019-01-25T06:22:25.421Z,61.7
2019-01-25T06:23:15.420Z,61.7
2019-01-25T06:24:05.775Z,61.7
2019-01-25T06:24:55.862Z,61.7
2019-01-25T06:25:45.683Z,61.7
2019-01-25T06:26:36.220Z,61.7
2019-01-25T06:27:25.990Z,61.7
2019-01-25T06:28:16.317Z,61.6
2019-01-25T06:29:06.095Z,61.6
2019-01-25T06:29:56.435Z,61.6
2019-01-25T06:30:45.655Z,61.6
2019-01-25T06:31:36.280Z,61.6
2019-01-25T06:32:26.602Z,61.6
2019-01-25T06:33:16.423Z,61.6
2019-01-25T06:34:06.244Z,61.6
2019-01-25T06:34:56.497Z,61.6
2019-01-25T06:35:46.589Z,61.6
2019-01-25T06:36:36.920Z,61.6
2019-01-25T06:37:26.409Z,61.6
2019-01-25T06:38:15.879Z,61.6
2019-01-25T06:39:06.809Z,61.6
2019-01-25T06:39:56.275Z,61.6
2019-01-25T06:40:46.077Z,61.6
2019-01-25T06:41:45.119Z,61.5
2019-01-25T06:42:26.999Z,61.5
2019-01-25T06:43:17.111Z,61.5
2019-01-25T06:44:06.596Z,61.5
2019-01-25T06:44:56.628Z,61.5
2019-01-25T06:45:47.254Z,61.5
2019-01-25T06:46:36.756Z,61.5
2019-01-25T06:47:27.336Z,61.5
2019-01-25T06:48:17.461Z,61.5
2019-01-25T06:49:06.966Z,61.5
2019-01-25T06:49:57.521Z,61.4
2019-01-25T06:50:47.345Z,61.4
2019-01-25T06:51:37.626Z,61.4
2019-01-25T06:52:27.428Z,61.4
2019-01-25T06:53:17.751Z,61.4
2019-01-25T06:54:08.078Z,61.4
2019-01-25T06:54:57.878Z,61.4
2019-01-25T06:55:48.200Z,61.4
2019-01-25T06:56:37.708Z,61.4
2019-01-25T06:57:28.052Z,61.4
2019-01-25T06:58:18.105Z,61.4
2019-01-25T06:59:07.868Z,61.4
2019-01-25T06:59:58.238Z,61.4
2019-01-25T07:00:48.005Z,61.4
2019-01-25T07:01:38.648Z,61.3
2019-01-25T07:02:28.415Z,61.4
2019-01-25T07:03:18.430Z,61.3
2019-01-25T07:04:10.131Z,61.3
2019-01-25T07:06:34.540Z,61.3
2019-01-25T07:07:24.425Z,61.3
2019-01-25T07:08:14.697Z,61.3
2019-01-25T07:09:04.475Z,61.3
2019-01-25T07:09:55.108Z,61.3
2019-01-25T07:10:44.610Z,61.3
2019-01-25T07:11:41.857Z,61.3
2019-01-25T07:12:24.657Z,61.3
2019-01-25T07:13:15.297Z,61.3
2019-01-25T07:14:05.438Z,61.3
2019-01-25T07:14:55.399Z,61.3
2019-01-25T07:15:45.452Z,61.2
2019-01-25T07:16:35.515Z,61.2
2019-01-25T07:17:24.739Z,61.2
2019-01-25T07:18:14.787Z,61.2
2019-01-25T07:19:05.434Z,61.2
2019-01-25T07:19:55.171Z,61.2
2019-01-25T07:20:45.789Z,61.2
2019-01-25T07:21:35.847Z,61.2
2019-01-25T07:22:25.377Z,61.2
2019-01-25T07:23:15.675Z,61.2
2019-01-25T07:24:05.446Z,61.1
2019-01-25T07:25:01.622Z,61.1
2019-01-25T07:25:45.861Z,61.1
2019-01-25T07:26:36.173Z,61.1
2019-01-25T07:27:25.694Z,61.1
2019-01-25T07:28:15.466Z,61.1
2019-01-25T07:29:06.213Z,61.1
2019-01-25T07:29:55.814Z,61.1
2019-01-25T07:30:46.114Z,61.1
2019-01-25T07:31:36.704Z,61.1
2019-01-25T07:32:26.151Z,61.1
2019-01-25T07:33:16.559Z,61.1
2019-01-25T07:34:06.612Z,61.1
2019-01-25T07:34:56.272Z,61.1
2019-01-25T07:35:46.609Z,61.1
2019-01-25T07:36:37.059Z,61.1
2019-01-25T07:37:26.694Z,61.1
2019-01-25T07:38:16.358Z,61
2019-01-25T07:39:07.259Z,61.1
2019-01-25T07:39:57.402Z,61
2019-01-25T07:40:47.218Z,61
2019-01-25T07:41:36.647Z,61
2019-01-25T07:42:27.226Z,61
2019-01-25T07:43:17.076Z,61
2019-01-25T07:44:07.421Z,61
2019-01-25T07:44:57.705Z,60.9
2019-01-25T07:45:47.944Z,60.9
2019-01-25T07:46:37.520Z,60.9
2019-01-25T07:47:27.636Z,60.9
2019-01-25T07:48:17.553Z,60.9
2019-01-25T07:49:08.163Z,60.9
2019-01-25T07:49:57.021Z,60.9
2019-01-25T07:50:47.856Z,60.9
2019-01-25T07:51:37.687Z,60.9
2019-01-25T07:52:28.218Z,60.9
2019-01-25T07:53:18.298Z,60.9
2019-01-25T07:54:08.377Z,60.9
2019-01-25T07:54:57.775Z,60.9
2019-01-25T07:55:48.285Z,60.9
2019-01-25T07:56:38.487Z,60.9
2019-01-25T07:57:28.213Z,60.9
2019-01-25T07:58:18.593Z,60.9
2019-01-25T07:59:08.239Z,60.9
2019-01-25T07:59:58.120Z,60.8
2019-01-25T08:00:48.289Z,60.9
2019-01-25T08:01:38.799Z,60.8
2019-01-25T08:02:27.581Z,60.8
2019-01-25T08:03:18.092Z,60.8
2019-01-25T08:04:08.524Z,60.8
2019-01-25T08:04:58.964Z,60.8
2019-01-25T08:05:49.229Z,60.8
2019-01-25T08:06:38.366Z,60.8
2019-01-25T08:07:29.450Z,60.8
2019-01-25T08:08:18.997Z,60.8
2019-01-25T08:09:09.480Z,60.8
2019-01-25T08:09:59.411Z,60.8
2019-01-25T08:10:49.336Z,60.8
2019-01-25T08:11:38.657Z,60.8
2019-01-25T08:12:29.354Z,60.8
2019-01-25T08:13:19.505Z,60.8
2019-01-25T08:14:09.453Z,60.8
2019-01-25T08:14:59.227Z,60.8
2019-01-25T08:15:49.573Z,60.7
2019-01-25T08:16:39.584Z,60.7
2019-01-25T08:17:29.699Z,60.7
2019-01-25T08:18:19.324Z,60.7
2019-01-25T08:19:10.036Z,60.7
2019-01-25T08:20:02.279Z,60.7
2019-01-25T08:20:49.877Z,60.7
2019-01-25T08:21:41.047Z,60.7
2019-01-25T08:22:30.580Z,60.7
2019-01-25T08:23:20.470Z,60.6
2019-01-25T08:24:09.538Z,60.6
2019-01-25T08:25:00.691Z,60.6
2019-01-25T08:25:50.626Z,60.6
2019-01-25T08:26:42.398Z,60.6
2019-01-25T08:27:30.644Z,60.6
2019-01-25T08:28:20.785Z,60.6
2019-01-25T08:29:10.170Z,60.6
2019-01-25T08:30:00.405Z,60.6
2019-01-25T08:30:50.728Z,60.6
2019-01-25T08:31:40.734Z,60.6
2019-01-25T08:32:30.973Z,60.6
2019-01-25T08:33:21.168Z,60.6
2019-01-25T08:34:11.065Z,60.6
2019-01-25T08:35:01.795Z,60.6
2019-01-25T08:35:50.726Z,60.5
2019-01-25T08:36:40.920Z,60.5
2019-01-25T08:37:31.085Z,60.5
2019-01-25T08:38:21.145Z,60.5
2019-01-25T08:39:11.490Z,60.5
2019-01-25T08:40:01.148Z,60.5
2019-01-25T08:40:51.366Z,60.5
2019-01-25T08:41:41.190Z,60.5
2019-01-25T08:42:31.444Z,60.5
2019-01-25T08:43:21.222Z,60.4
2019-01-25T08:44:11.534Z,60.4
2019-01-25T08:45:04.817Z,60.4
2019-01-25T08:45:54.347Z,60.4
2019-01-25T08:46:41.646Z,60.4
2019-01-25T08:47:31.807Z,60.4
2019-01-25T08:48:20.977Z,60.4
2019-01-25T08:49:12.049Z,60.4
2019-01-25T08:50:04.191Z,60.4
2019-01-25T08:50:51.989Z,60.4
2019-01-25T08:51:43.649Z,60.4
2019-01-25T08:52:32.365Z,60.4
2019-01-25T08:53:22.517Z,60.4
2019-01-25T08:54:11.397Z,60.4
2019-01-25T08:55:01.968Z,60.4
2019-01-25T08:55:52.408Z,60.4
2019-01-25T08:56:42.241Z,60.3
2019-01-25T08:57:32.267Z,60.3
2019-01-25T08:58:22.838Z,60.4
2019-01-25T08:59:12.924Z,60.3
2019-01-25T09:00:02.663Z,60.3
2019-01-25T09:00:54.408Z,60.3
2019-01-25T09:01:42.158Z,60.3
2019-01-25T09:02:32.781Z,60.3
2019-01-25T09:03:22.021Z,60.3
2019-01-25T09:04:11.805Z,60.3
2019-01-25T09:05:02.868Z,60.3
2019-01-25T09:05:52.990Z,60.3
2019-01-25T09:06:42.808Z,60.3
2019-01-25T09:07:32.895Z,60.3
2019-01-25T09:08:22.910Z,60.3
2019-01-25T09:09:12.667Z,60.3
2019-01-25T09:10:03.059Z,60.3
2019-01-25T09:10:52.510Z,60.3
2019-01-25T09:11:42.578Z,60.2
2019-01-25T09:12:33.459Z,60.2
2019-01-25T09:13:23.522Z,60.2
2019-01-25T09:14:13.587Z,60.2
2019-01-25T09:15:02.644Z,60.2
2019-01-25T09:15:53.426Z,60.2
2019-01-25T09:16:43.212Z,60.2
2019-01-25T09:17:33.515Z,60.2
2019-01-25T09:18:23.332Z,60.2
2019-01-25T09:19:12.815Z,60.1
2019-01-25T09:20:03.844Z,60.1
2019-01-25T09:20:54.634Z,60.1
2019-01-25T09:21:43.823Z,60.1
2019-01-25T09:22:33.867Z,60.1
2019-01-25T09:23:23.646Z,60.1
2019-01-25T09:24:14.271Z,60.1
2019-01-25T09:25:04.356Z,60.1
2019-01-25T09:26:01.317Z,60.1
2019-01-25T09:26:43.856Z,60.1
2019-01-25T09:27:34.537Z,60.1
2019-01-25T09:28:24.266Z,60.1
2019-01-25T09:29:14.051Z,60.1
2019-01-25T09:30:04.666Z,60.1
2019-01-25T09:30:54.161Z,60.1
2019-01-25T09:31:44.791Z,60.1
2019-01-25T09:32:34.573Z,60.1
2019-01-25T09:33:24.751Z,60
2019-01-25T09:34:14.978Z,60
2019-01-25T09:35:05.134Z,60
2019-01-25T09:35:54.794Z,60
2019-01-25T09:36:44.883Z,60
2019-01-25T09:37:35.193Z,60
2019-01-25T09:38:24.972Z,60
2019-01-25T09:39:15.030Z,59.9
2019-01-25T09:40:05.354Z,60
2019-01-25T09:40:55.108Z,59.9
2019-01-25T09:41:44.908Z,59.9
2019-01-25T09:42:35.840Z,59.9
2019-01-25T09:43:24.742Z,59.9
2019-01-25T09:44:15.396Z,59.9
2019-01-25T09:45:05.406Z,59.9
2019-01-25T09:45:55.738Z,59.9
2019-01-25T09:46:44.960Z,59.9
2019-01-25T09:47:34.465Z,59.9
2019-01-25T10:29:35.250Z,59.5
2019-01-25T10:30:24.776Z,59.5
2019-01-25T10:31:15.941Z,59.5
2019-01-25T10:32:06.017Z,59.5
2019-01-25T10:32:54.927Z,59.5
2019-01-25T10:33:45.582Z,59.5
2019-01-25T10:34:35.602Z,59.5
2019-01-25T10:35:25.447Z,59.5
2019-01-25T10:36:15.996Z,59.5
2019-01-25T10:37:05.774Z,59.4
2019-01-25T10:37:56.127Z,59.4
2019-01-25T10:38:46.184Z,59.4
2019-01-25T10:39:35.949Z,59.4
2019-01-25T10:40:26.004Z,59.4
2019-01-25T10:41:16.623Z,59.4
2019-01-25T10:42:06.692Z,59.4
2019-01-25T10:42:58.347Z,59.4
2019-01-25T10:43:46.238Z,59.4
2019-01-25T10:44:36.302Z,59.4
2019-01-25T10:45:26.627Z,59.4
2019-01-25T10:46:16.995Z,59.4
2019-01-25T10:47:07.039Z,59.4
2019-01-25T10:47:57.118Z,59.4
2019-01-25T10:48:46.283Z,59.4
2019-01-25T10:49:36.952Z,59.4
2019-01-25T10:50:27.262Z,59.4
2019-01-25T10:51:16.784Z,59.3
2019-01-25T10:52:07.094Z,59.4
2019-01-25T10:52:56.877Z,59.3
2019-01-25T10:53:47.463Z,59.3
2019-01-25T10:54:37.541Z,59.3
2019-01-25T10:55:27.595Z,59.3
2019-01-25T10:56:17.089Z,59.3
2019-01-25T10:57:07.425Z,59.3
2019-01-25T10:57:57.484Z,59.3
2019-01-25T10:58:47.527Z,59.3
2019-01-25T10:59:37.583Z,59.3
2019-01-25T11:00:27.954Z,59.3
2019-01-25T11:01:17.984Z,59.3
2019-01-25T11:02:08.041Z,59.3
2019-01-25T11:03:03.126Z,59.3
2019-01-25T11:03:49.709Z,59.3
2019-01-25T11:04:38.214Z,59.3
2019-01-25T11:05:27.740Z,59.2
2019-01-25T11:06:18.314Z,59.2
2019-01-25T11:07:08.406Z,59.2
2019-01-25T11:07:58.194Z,59.2
2019-01-25T11:08:48.584Z,59.2
2019-01-25T11:09:42.864Z,59.2
2019-01-25T11:10:28.616Z,59.2
2019-01-25T11:11:18.676Z,59.2
2019-01-25T11:12:08.711Z,59.2
2019-01-25T11:13:05.471Z,59.2
2019-01-25T11:13:48.824Z,59.1
2019-01-25T11:14:38.923Z,59.1
2019-01-25T11:15:28.667Z,59.1
2019-01-25T11:16:18.736Z,59.1
2019-01-25T11:17:08.821Z,59.1
2019-01-25T11:17:59.136Z,59.1
2019-01-25T11:18:48.613Z,59.1
2019-01-25T11:19:38.688Z,59.1
2019-01-25T11:20:29.365Z,59.1
2019-01-25T11:21:19.122Z,59.1
2019-01-25T11:22:08.556Z,59.1
2019-01-25T11:22:59.493Z,59.1
2019-01-25T11:23:48.968Z,59.1
2019-01-25T11:24:39.300Z,59.1
2019-01-25T11:25:29.374Z,59.1
2019-01-25T11:26:19.402Z,59.1
2019-01-25T11:27:09.721Z,59.1
2019-01-25T11:27:59.821Z,59
2019-01-25T11:28:49.859Z,59
2019-01-25T11:29:39.918Z,59
2019-01-25T11:30:30.043Z,59
2019-01-25T11:31:19.530Z,59
2019-01-25T11:32:10.137Z,59
2019-01-25T11:33:00.155Z,59
2019-01-25T11:33:49.660Z,59
2019-01-25T11:34:40.240Z,59
2019-01-25T11:35:30.030Z,59
2019-01-25T11:36:19.813Z,58.9
2019-01-25T11:37:10.429Z,58.9
2019-01-25T11:38:00.492Z,58.9
2019-01-25T11:38:50.249Z,58.9
2019-01-25T11:39:40.325Z,58.9
2019-01-25T11:40:30.650Z,58.9
2019-01-25T11:41:20.765Z,58.9
2019-01-25T11:42:10.504Z,58.9
2019-01-25T11:43:00.562Z,58.9
2019-01-25T11:43:50.630Z,58.9
2019-01-25T11:44:40.377Z,58.9
2019-01-25T11:45:31.004Z,58.9
2019-01-25T11:46:21.097Z,58.9
2019-01-25T11:47:11.112Z,58.9
2019-01-25T11:48:02.622Z,58.9
2019-01-25T11:48:51.216Z,58.9
2019-01-25T11:49:41.004Z,58.8
2019-01-25T11:50:31.342Z,58.8
2019-01-25T11:51:22.641Z,58.8
2019-01-25T11:52:11.244Z,58.8
2019-01-25T11:53:01.542Z,58.8
2019-01-25T11:53:51.581Z,58.8
2019-01-25T11:54:41.612Z,58.8
2019-01-25T11:55:31.111Z,58.8
2019-01-25T11:56:21.237Z,58.8
2019-01-25T11:57:11.789Z,58.8
2019-01-25T11:58:01.896Z,58.8